Archival Weather

Yakutsk

Yakutsk, Russia (UEEE)

Report from: Thursday, January 26, 2023 9:30 PM JST
Current time: Saturday, April 1, 2023 10:46 PM JST

Current weather
Weather history
Weather forecast

Present weatherFog
Temperature-44.0°C (-47.2°F)
Dew point-49.0°C (-56.2°F)
Winds Calm
Visibility0.2 mi. (0.3 km)
Clouds Ceiling: Vertical visibility 200 ft. (61 m)
Altimeter30.42 in.Hg (1030 mB)
Precip. events QB 9:10 PM
QF 8:43 AM
Relative humidity57 %
Density altitude-8,614 ft. (-2,626 m)
Remarks No significant changes expected in the next two hours
Flight conditions Low Instrument Meteorological Conditions
Raw dataUEEE 261230Z 00000MPS 0250 0100SW R23L/0800U FG VV002 M44/M49 Q1030 R23L/490150 NOSIG RMK QBB070 QFE763
An error has occurred. This application may no longer respond until reloaded. Reload 🗙